Hardin, MT (59034)

6:01 AM MDT on July 30, 2014 (GMT -0600)
Custer (KMTCUSTE2) Elev 2785 ft | 46.07 °N, 107.72 °W | Change Station

Current weather conditions updated 10 minutes ago

Scattered Clouds
Scattered Clouds
51.8 °F
Feels Like 51.8 °F
N
0.0
Wind Variable Wind from SSW
Gusts 0.0 mph

Today is forecast to be nearly the same temperature as yesterday.

Today
High -- | Low -- °F
--% Chance of Precip.
Yesterday
High -- | Low -- °F
Precip. -- in
5:51 AM 8:41 PM
Waxing Crescent, 11% visible
Pressure 30.14 in
Visibility 10.0 miles
Clouds Few 18000 ft
Scattered Clouds 25000 ft
Dew Point 45 °F
Humidity 78%
Rainfall 0.00 in
Snow Depth Not available.
UV 0 out of 12
Pollen 6.50 out of 12
Air Quality Not available.
Flu Activity Not available.
METAR KBIL 301153Z 23009KT 10SM FEW180 SCT250 17/12 A3024 RMK AO2 SLP205 T01720117 10222 20172 53004

More Conditions Fewer Conditions

Pressure 30.14 in
Visibility 10.0 miles
Clouds Few 18000 ft
Scattered Clouds 25000 ft
Dew Point 45 °F
Humidity 78%
Rainfall 0.00 in
Snow Depth Not available.
UV 0 out of 12
Pollen 6.50 out of 12
Air Quality Not available.
Flu Activity Not available.
METAR KBIL 301153Z 23009KT 10SM FEW180 SCT250 17/12 A3024 RMK AO2 SLP205 T01720117 10222 20172 53004

More Conditions Fewer Conditions

10-Day Weather Forecast

Almanac

Astronomy

Jul. 30, 2014 Rise Set
Actual Time 5:51 AM MDT 8:41 PM MDT
Civil Twilight 5:16 AM MDT 9:16 PM MDT
Nautical Twilight 4:32 AM MDT 9:59 PM MDT
Astronomical Twilight 3:40 AM MDT 10:51 PM MDT
Moon 9:39 AM MDT 10:10 PM MDT
Length of Visible Light 15h 59m
Length of Day
14h 50m
Tomorrow will be 2m 26s shorter.
Waxing Crescent, 11% of the Moon is Illuminated
Today
Waxing Crescent
Aug 3
First Quarter
Aug 10
Full
Aug 17
Last Quarter
Aug 25
New

Today's Extremes

State Highs State Lows

Community

WunderPhotos

Upload Photos

1,739,047 photos uploaded!

Nearby

Snow Depth

Station Depth Elevation
Cole Creek 0 in 7850 ft
Burnt Mountain 0 in 5880 ft
Crystal Lake 0 in 6050 ft
White Mill 1 in 8700 ft
Placer Basin 0 in 8830 ft

Earthquake Activity

City Distance Mag. Time & Date
No recent earthquake activity has been reported nearby.
Minimum magnitude displayed is 2.5.

Coastal Water Temperatures

Place Temperature
No Stations Reporting

Nearby Weather Stations

Station Location Temp. Dew Point Humidity Wind Precip. Elev Updated Type
RAWS LITTLE BIGHORN MT, Crow Agency, MT 56 °F 45 °F 67% SE  at  8 mph 0.00 in / hr 3196 ft 4:59 AM MDT MADIS
Custer, Waco, MT 51.8 °F 45 °F 78% SSW  at  0.0 mph 0.00 in / hr 2785 ft 5:50 AM MDT Normal

Show More Stations Show Fewer Stations